Time;durP1;ratioP1;P1;durP2;ratioP2;P2;SDS_P1;SDS_P2;PMS_P1;PMS_P2;Temp;Humidity;BMP_temperature;BMP_pressure;BME280_temperature;BME280_humidity;BME280_pressure;Samples;Min_cycle;Max_cycle;Signal;HPM_P1;HPM_P2
2021/04/07 00:00:37;;;;;;;11.50;4.15;;;;;;;6.67;72.07;97869.42;117828;1206;22830;-66
2021/04/07 00:03:05;;;;;;;6.10;4.05;;;;;;;6.65;72.57;97871.58;117720;1206;22830;-66
2021/04/07 00:05:36;;;;;;;6.47;3.83;;;;;;;6.64;73.01;97861.03;117802;1205;22915;-66
2021/04/07 00:08:04;;;;;;;7.10;3.70;;;;;;;6.66;72.27;97872.40;117753;1205;22971;-66
2021/04/07 00:10:38;;;;;;;10.80;4.47;;;;;;;6.66;72.50;97866.98;117833;1206;22807;-66
2021/04/07 00:13:06;;;;;;;7.07;4.63;;;;;;;6.64;72.25;97864.55;117759;1205;22922;-66
2021/04/07 00:15:34;;;;;;;7.30;3.90;;;;;;;6.66;73.06;97862.38;117778;1206;22829;-66
2021/04/07 00:18:02;;;;;;;7.63;4.17;;;;;;;6.66;72.46;97866.98;117746;1208;22964;-66
2021/04/07 00:20:30;;;;;;;14.65;3.65;;;;;;;6.69;72.33;97869.16;117742;1206;22894;-66
2021/04/07 00:22:57;;;;;;;6.60;3.70;;;;;;;6.69;72.62;97863.73;117773;1206;23680;-66
2021/04/07 00:25:26;;;;;;;6.20;3.55;;;;;;;6.70;72.76;97858.06;117832;1204;22887;-66
2021/04/07 00:27:58;;;;;;;5.95;3.50;;;;;;;6.72;72.90;97861.30;117683;1206;24032;-66
2021/04/07 00:30:28;;;;;;;7.20;3.55;;;;;;;6.74;73.39;97856.44;117832;1205;22860;-66
2021/04/07 00:32:56;;;;;;;10.95;4.50;;;;;;;6.77;73.06;97857.78;117699;1205;22835;-66
2021/04/07 00:35:23;;;;;;;5.90;3.50;;;;;;;6.79;73.04;97857.48;117709;1205;23654;-66
2021/04/07 00:37:51;;;;;;;10.23;4.03;;;;;;;6.80;72.78;97857.22;117757;1209;22823;-64
2021/04/07 00:40:20;;;;;;;8.10;4.10;;;;;;;6.83;73.02;97853.16;117820;1205;22795;-64
2021/04/07 00:42:49;;;;;;;7.00;3.85;;;;;;;6.84;73.15;97854.78;117756;1208;22954;-65
2021/04/07 00:45:17;;;;;;;10.17;5.23;;;;;;;6.83;73.00;97856.67;117670;1206;22937;-60
2021/04/07 00:47:49;;;;;;;8.30;4.70;;;;;;;6.84;73.01;97854.78;113676;1207;23129;-58
2021/04/07 00:50:18;;;;;;;8.60;4.80;;;;;;;6.84;73.14;97852.07;117828;1206;23047;-59
2021/04/07 00:52:46;;;;;;;10.30;4.27;;;;;;;6.85;73.22;97857.21;117781;1206;22826;-59
2021/04/07 00:55:14;;;;;;;8.05;4.95;;;;;;;6.87;72.65;97856.94;117390;1205;22882;-59
2021/04/07 00:57:42;;;;;;;10.55;6.05;;;;;;;6.88;72.86;97866.69;117813;1209;23963;-59
2021/04/07 01:00:11;;;;;;;14.35;7.35;;;;;;;6.89;72.63;97868.31;117695;1205;22776;-60
2021/04/07 01:02:39;;;;;;;15.67;10.30;;;;;;;6.83;72.91;97867.50;117832;1205;22826;-60
2021/04/07 01:05:08;;;;;;;21.70;10.75;;;;;;;6.77;72.40;97871.32;117650;1205;22881;-60
2021/04/07 01:07:38;;;;;;;15.70;10.75;;;;;;;6.66;72.67;97870.50;117821;1209;23022;-59
2021/04/07 01:10:07;;;;;;;16.10;10.05;;;;;;;6.56;72.20;97875.13;117704;1206;23638;-59
2021/04/07 01:12:38;;;;;;;14.93;10.30;;;;;;;6.46;72.41;97877.84;117842;1205;23035;-59
2021/04/07 01:15:09;;;;;;;17.20;10.95;;;;;;;6.35;72.90;97877.02;117740;1206;23501;-60
2021/04/07 01:17:38;;;;;;;15.90;10.25;;;;;;;6.24;73.33;97881.63;117733;1205;22950;-64
2021/04/07 01:20:13;;;;;;;14.60;9.53;;;;;;;6.15;73.16;97877.84;117647;1206;22913;-64
2021/04/07 01:22:40;;;;;;;17.00;10.65;;;;;;;6.09;73.84;97886.20;117533;1205;23507;-64
2021/04/07 01:25:09;;;;;;;14.40;9.40;;;;;;;5.93;74.06;97869.97;117728;1204;23535;-64
2021/04/07 01:27:38;;;;;;;15.20;10.00;;;;;;;5.93;74.11;97885.38;117832;1206;22889;-65
2021/04/07 01:30:07;;;;;;;14.90;8.37;;;;;;;5.83;74.32;97883.44;117747;1205;22900;-64
2021/04/07 01:32:38;;;;;;;12.05;7.95;;;;;;;5.75;74.40;97881.27;117763;1205;24003;-65
2021/04/07 01:35:07;;;;;;;12.30;8.50;;;;;;;5.70;74.86;97881.25;117696;1205;22890;-64
2021/04/07 01:37:35;;;;;;;9.93;7.37;;;;;;;5.68;74.94;97884.22;117837;1206;22852;-64
2021/04/07 01:40:09;;;;;;;12.90;8.80;;;;;;;5.66;74.97;97874.75;117758;1206;24156;-64
2021/04/07 01:42:37;;;;;;;12.73;8.57;;;;;;;5.64;74.81;97887.71;117841;1206;22904;-64
2021/04/07 01:45:12;;;;;;;14.05;8.40;;;;;;;5.62;75.52;97884.48;117734;1205;22880;-65
2021/04/07 01:47:43;;;;;;;13.95;9.50;;;;;;;5.54;74.96;97874.99;117893;1208;23013;-65
2021/04/07 01:50:11;;;;;;;11.63;8.60;;;;;;;5.47;75.79;97877.15;117680;1206;23745;-65
2021/04/07 01:52:38;;;;;;;14.80;8.25;;;;;;;5.42;75.35;97868.20;117583;1205;22939;-64
2021/04/07 01:55:07;;;;;;;10.17;7.27;;;;;;;5.38;75.56;97867.11;117819;1206;23676;-64
2021/04/07 01:57:36;;;;;;;11.20;6.85;;;;;;;5.30;75.69;97871.14;117770;1205;23007;-64
2021/04/07 02:00:09;;;;;;;11.40;7.70;;;;;;;5.25;75.95;97865.71;117840;1208;22857;-65
2021/04/07 02:02:39;;;;;;;12.10;6.80;;;;;;;5.23;76.36;97854.36;117763;1206;23002;-65
2021/04/07 02:05:07;;;;;;;11.00;6.90;;;;;;;5.21;76.31;97840.30;117849;1206;23062;-65
2021/04/07 02:07:35;;;;;;;12.40;6.80;;;;;;;5.20;76.20;97841.38;117791;1206;22995;-64
2021/04/07 02:10:07;;;;;;;9.20;7.25;;;;;;;5.15;76.67;97833.28;117795;1206;22909;-65
2021/04/07 02:12:34;;;;;;;8.27;5.47;;;;;;;5.04;76.54;97820.83;117745;1205;22973;-65
2021/04/07 02:15:13;;;;;;;9.05;5.60;;;;;;;4.89;76.85;97816.17;117851;1205;22964;-64
2021/04/07 02:17:41;;;;;;;9.60;5.23;;;;;;;4.75;76.87;97807.75;117673;1207;23007;-65
2021/04/07 02:20:09;;;;;;;10.35;6.15;;;;;;;4.67;77.10;97808.23;117862;1205;22819;-64
2021/04/07 02:22:37;;;;;;;8.93;5.57;;;;;;;4.61;77.50;97806.59;117724;1209;22952;-65
2021/04/07 02:25:11;;;;;;;9.00;5.45;;;;;;;4.61;77.40;97799.31;117819;1206;22933;-65
2021/04/07 02:27:39;;;;;;;6.73;4.83;;;;;;;4.61;77.17;97801.20;117692;1205;23240;-59
2021/04/07 02:30:09;;;;;;;7.95;5.20;;;;;;;4.56;77.41;97798.47;117778;1206;23725;-59
2021/04/07 02:32:36;;;;;;;8.60;4.95;;;;;;;4.54;77.97;97800.61;117726;1206;23739;-60
2021/04/07 02:35:04;;;;;;;7.70;5.13;;;;;;;4.54;77.65;97803.30;117880;1206;23638;-60
2021/04/07 02:37:32;;;;;;;8.10;5.35;;;;;;;4.49;77.78;97808.66;117687;1206;23008;-59
2021/04/07 02:40:00;;;;;;;7.00;4.90;;;;;;;4.48;77.58;97815.94;117810;1206;22871;-60
2021/04/07 02:42:27;;;;;;;13.80;6.40;;;;;;;4.47;77.78;97825.09;117743;1205;23884;-60
2021/04/07 02:44:56;;;;;;;11.85;6.85;;;;;;;4.47;77.66;97835.10;117790;1205;22962;-60
2021/04/07 02:47:24;;;;;;;14.60;8.55;;;;;;;4.36;78.30;97827.98;117766;1206;23585;-60
2021/04/07 02:49:52;;;;;;;12.20;7.70;;;;;;;4.46;78.08;97844.26;117860;1209;22947;-60
2021/04/07 02:52:20;;;;;;;10.30;6.20;;;;;;;4.43;78.16;97847.47;117785;1205;22862;-59
2021/04/07 02:54:48;;;;;;;8.60;5.45;;;;;;;4.39;77.84;97852.56;117741;1205;22842;-59
2021/04/07 02:57:15;;;;;;;9.35;5.80;;;;;;;4.36;78.12;97855.77;114228;1209;26027;-59
2021/04/07 02:59:43;;;;;;;8.33;5.70;;;;;;;4.36;78.48;97871.13;113694;1206;24901;-60
2021/04/07 03:02:11;;;;;;;7.30;4.95;;;;;;;4.31;78.39;97877.31;113751;1206;23114;-59
2021/04/07 03:04:39;;;;;;;9.40;5.50;;;;;;;4.27;78.39;97878.89;117633;1206;22975;-60
2021/04/07 03:07:06;;;;;;;12.10;5.65;;;;;;;4.24;78.75;97890.18;117753;1205;23433;-60
2021/04/07 03:09:34;;;;;;;9.90;6.50;;;;;;;4.16;78.63;97894.17;117672;1206;23930;-59
2021/04/07 03:12:01;;;;;;;8.80;5.30;;;;;;;4.16;78.83;97901.45;117871;1209;22914;-59
2021/04/07 03:14:29;;;;;;;6.30;4.40;;;;;;;4.17;79.08;97906.59;117728;1206;22917;-59
2021/04/07 03:17:01;;;;;;;7.17;4.83;;;;;;;4.18;78.88;97910.88;117825;1206;22874;-59
2021/04/07 03:19:28;;;;;;;7.95;4.35;;;;;;;4.19;78.77;97909.81;117753;1206;23967;-59
2021/04/07 03:21:56;;;;;;;7.90;4.85;;;;;;;4.18;78.63;97923.57;117820;1209;22829;-60
2021/04/07 03:24:23;;;;;;;8.55;5.35;;;;;;;4.17;79.03;97913.86;117744;1208;22830;-60
2021/04/07 03:26:51;;;;;;;7.15;4.60;;;;;;;4.13;78.68;97915.43;117840;1206;23862;-59
2021/04/07 03:29:18;;;;;;;10.85;4.90;;;;;;;4.11;78.47;97912.17;117772;1206;23792;-59
2021/04/07 03:31:46;;;;;;;7.43;4.00;;;;;;;4.08;78.74;97921.58;117721;1208;23632;-59
2021/04/07 03:34:13;;;;;;;8.00;4.00;;;;;;;4.03;79.06;97923.43;117755;1206;22973;-61
2021/04/07 03:36:41;;;;;;;5.47;3.57;;;;;;;3.99;78.96;97915.03;117935;1205;22817;-60
2021/04/07 03:39:08;;;;;;;10.40;3.70;;;;;;;3.98;78.68;97915.28;117789;1205;22823;-60
2021/04/07 03:41:36;;;;;;;5.55;3.15;;;;;;;3.96;79.20;97918.23;117781;1206;22885;-60
2021/04/07 03:44:04;;;;;;;6.10;3.55;;;;;;;3.97;79.17;97917.16;117891;1208;22999;-59
2021/04/07 03:46:31;;;;;;;6.70;3.70;;;;;;;4.00;79.02;97923.93;117775;1207;22861;-60
2021/04/07 03:48:59;;;;;;;6.30;3.00;;;;;;;3.98;78.65;97913.41;117819;1205;22865;-59
2021/04/07 03:51:27;;;;;;;7.67;3.33;;;;;;;3.98;79.03;97918.80;117659;1206;22843;-60
2021/04/07 03:53:54;;;;;;;7.30;3.55;;;;;;;3.98;78.77;97920.67;117831;1208;22825;-60
2021/04/07 03:56:22;;;;;;;5.75;3.80;;;;;;;4.01;78.90;97925.56;117769;1208;22855;-59
2021/04/07 03:58:50;;;;;;;5.27;3.17;;;;;;;3.97;78.66;97927.13;117807;1206;22997;-59
2021/04/07 04:01:17;;;;;;;4.55;2.85;;;;;;;3.94;78.58;97938.41;117714;1206;22944;-60
2021/04/07 04:03:45;;;;;;;3.95;2.85;;;;;;;3.93;78.20;97931.39;117912;1209;22922;-59
2021/04/07 04:06:12;;;;;;;4.15;2.85;;;;;;;3.88;78.53;97941.06;117716;1205;22824;-59
2021/04/07 04:08:40;;;;;;;4.20;2.60;;;;;;;3.86;78.62;97943.20;117863;1209;22786;-59
2021/04/07 04:11:08;;;;;;;4.20;2.50;;;;;;;3.84;78.37;97942.63;117757;1205;22848;-63
2021/04/07 04:13:38;;;;;;;3.07;2.40;;;;;;;3.80;78.28;97938.00;117844;1206;22974;-59
2021/04/07 04:16:06;;;;;;;2.80;2.10;;;;;;;3.70;78.18;97938.71;117762;1205;22896;-59
2021/04/07 04:18:35;;;;;;;2.47;2.10;;;;;;;3.60;77.98;97943.98;117838;1206;22822;-59
2021/04/07 04:21:05;;;;;;;2.77;2.17;;;;;;;3.48;78.14;97941.41;117648;1205;22861;-60
2021/04/07 04:23:32;;;;;;;2.90;1.95;;;;;;;3.41;78.44;97939.98;117796;1205;22811;-59
2021/04/07 04:26:00;;;;;;;2.60;2.20;;;;;;;3.38;78.82;97933.21;116390;1207;24904;-62
2021/04/07 04:28:27;;;;;;;3.63;2.40;;;;;;;3.31;79.24;97934.48;113635;1209;23122;-63
2021/04/07 04:30:55;;;;;;;4.00;2.15;;;;;;;3.19;79.44;97937.27;117785;1206;23016;-64
2021/04/07 04:33:23;;;;;;;3.85;2.50;;;;;;;3.13;79.81;97946.34;117688;1205;23106;-64
2021/04/07 04:35:51;;;;;;;3.55;2.55;;;;;;;3.09;80.37;97939.83;117843;1209;23921;-64
2021/04/07 04:38:19;;;;;;;3.25;2.20;;;;;;;3.10;80.50;97941.45;117793;1209;22979;-64
2021/04/07 04:40:46;;;;;;;7.35;2.60;;;;;;;3.12;79.91;97944.72;117860;1206;22866;-64
2021/04/07 04:43:14;;;;;;;3.23;2.50;;;;;;;3.13;80.15;97949.04;117748;1205;22816;-64
2021/04/07 04:45:43;;;;;;;2.70;2.20;;;;;;;3.09;80.00;97939.83;117802;1209;22963;-64
2021/04/07 04:48:10;;;;;;;3.20;2.20;;;;;;;3.01;80.00;97942.96;117680;1206;23002;-64
2021/04/07 04:50:38;;;;;;;2.75;2.20;;;;;;;2.96;80.45;97957.14;117703;1206;22996;-64
2021/04/07 04:53:06;;;;;;;4.10;2.60;;;;;;;2.95;80.30;97950.13;117710;1206;22910;-64
2021/04/07 04:55:33;;;;;;;3.00;2.50;;;;;;;2.94;80.09;97955.75;117855;1206;22925;-64
2021/04/07 04:58:01;;;;;;;4.50;2.75;;;;;;;2.88;80.44;97954.07;117655;1205;22819;-65
2021/04/07 05:00:28;;;;;;;5.25;2.60;;;;;;;2.81;80.25;97951.54;117825;1206;22834;-64
2021/04/07 05:02:56;;;;;;;3.10;2.35;;;;;;;2.81;80.17;97959.61;117766;1206;23001;-64
2021/04/07 05:05:23;;;;;;;2.15;1.70;;;;;;;2.80;80.21;97952.59;117460;1206;23108;-59
2021/04/07 05:07:50;;;;;;;1.90;1.60;;;;;;;2.77;80.90;97956.59;113705;1206;23109;-60
2021/04/07 05:10:19;;;;;;;2.30;1.80;;;;;;;2.74;80.62;97964.36;117812;1206;22970;-60
2021/04/07 05:12:46;;;;;;;2.90;2.10;;;;;;;2.71;80.96;97972.91;117843;1206;23042;-58
2021/04/07 05:15:14;;;;;;;2.20;1.90;;;;;;;2.68;81.04;97981.45;117762;1205;23763;-58
2021/04/07 05:17:42;;;;;;;2.83;2.00;;;;;;;2.67;81.02;97985.20;117903;1208;22895;-58
2021/04/07 05:20:10;;;;;;;2.27;1.90;;;;;;;2.69;81.40;97997.35;117768;1205;22792;-58
2021/04/07 05:22:38;;;;;;;2.97;1.90;;;;;;;2.70;81.72;97998.17;117824;1205;22862;-58
2021/04/07 05:25:06;;;;;;;5.73;2.00;;;;;;;2.75;81.18;97998.23;117719;1205;24020;-58
2021/04/07 05:27:34;;;;;;;3.60;1.85;;;;;;;2.75;80.78;98006.30;117836;1206;22804;-60
2021/04/07 05:30:01;;;;;;;2.70;2.10;;;;;;;2.78;80.93;98012.00;117767;1207;22985;-57
2021/04/07 05:32:29;;;;;;;2.73;2.33;;;;;;;2.83;81.31;98013.97;117818;1208;22909;-58
2021/04/07 05:34:57;;;;;;;3.70;2.55;;;;;;;2.83;80.46;98011.28;117714;1205;22938;-58
2021/04/07 05:37:25;;;;;;;2.40;2.20;;;;;;;2.83;80.81;98009.41;117735;1206;22861;-58
2021/04/07 05:39:53;;;;;;;2.30;1.90;;;;;;;2.88;80.72;98013.25;117691;1208;22915;-60
2021/04/07 05:42:21;;;;;;;3.55;2.10;;;;;;;2.89;80.68;98007.59;117799;1209;23043;-58
2021/04/07 05:44:48;;;;;;;2.25;2.05;;;;;;;2.91;80.33;98010.86;117678;1205;23898;-58
2021/04/07 05:47:16;;;;;;;3.40;2.35;;;;;;;2.87;79.81;98012.43;117805;1206;22827;-57
2021/04/07 05:49:43;;;;;;;4.20;2.43;;;;;;;2.82;80.16;98015.84;117661;1206;23105;-58
2021/04/07 05:52:11;;;;;;;5.03;2.70;;;;;;;2.80;80.45;98017.96;117793;1209;22933;-58
2021/04/07 05:54:38;;;;;;;6.20;2.93;;;;;;;2.77;79.92;98013.06;117731;1209;22917;-57
2021/04/07 05:57:06;;;;;;;4.60;3.20;;;;;;;2.74;80.50;98023.52;117746;1205;22900;-58
2021/04/07 05:59:34;;;;;;;3.30;2.80;;;;;;;2.63;80.45;98013.63;117779;1205;23717;-58
2021/04/07 06:05:00;;;;;;;8.05;4.60;;;;;;;2.72;80.31;98029.14;113341;1205;23382;-58
2021/04/07 06:07:28;;;;;;;6.40;5.30;;;;;;;2.66;80.05;98030.09;117437;1208;23494;-63
2021/04/07 06:09:56;;;;;;;9.70;6.60;;;;;;;2.67;80.81;98030.91;117444;1208;22922;-63
2021/04/07 06:12:23;;;;;;;8.80;6.50;;;;;;;2.67;80.87;98030.91;117310;1209;22875;-64
2021/04/07 06:14:51;;;;;;;9.00;7.40;;;;;;;2.66;80.70;98030.09;117457;1208;23507;-63
2021/04/07 06:17:18;;;;;;;10.55;6.10;;;;;;;2.68;80.67;98035.23;117436;1207;24174;-64
2021/04/07 06:19:50;;;;;;;9.03;5.97;;;;;;;2.65;80.63;98028.47;117450;1208;23621;-63
2021/04/07 06:22:19;;;;;;;7.67;5.37;;;;;;;2.63;80.33;98024.39;117459;1209;22912;-63
2021/04/07 06:24:47;;;;;;;7.00;5.45;;;;;;;2.62;80.28;98023.56;117566;1209;22815;-64
2021/04/07 06:27:14;;;;;;;7.40;5.23;;;;;;;2.63;80.27;98027.89;117328;1208;22961;-64
2021/04/07 06:29:42;;;;;;;6.93;5.47;;;;;;;2.59;80.92;98023.27;117542;1209;22910;-64
2021/04/07 06:32:09;;;;;;;7.13;5.53;;;;;;;2.59;80.98;98020.58;117554;1207;22907;-64
2021/04/07 06:34:37;;;;;;;6.33;4.87;;;;;;;2.61;80.70;98023.81;117455;1208;22901;-64
2021/04/07 06:37:05;;;;;;;11.20;6.60;;;;;;;2.57;80.00;98022.69;114280;1209;23134;-62
2021/04/07 06:39:32;;;;;;;9.40;7.40;;;;;;;2.53;81.22;98022.35;117405;1208;22920;-63
2021/04/07 06:42:02;;;;;;;10.83;8.50;;;;;;;2.55;81.02;98022.11;117334;1208;22863;-63
2021/04/07 06:44:30;;;;;;;11.10;8.00;;;;;;;2.55;81.06;98022.92;117488;1209;22926;-63
2021/04/07 06:46:57;;;;;;;9.05;6.30;;;;;;;2.48;81.05;98023.07;117209;1208;22839;-63
2021/04/07 06:49:26;;;;;;;8.47;6.10;;;;;;;2.47;80.78;98026.81;117235;1209;22929;-64
2021/04/07 06:51:54;;;;;;;6.40;4.80;;;;;;;2.53;80.91;98030.42;117276;1208;22898;-63
2021/04/07 06:54:22;;;;;;;7.80;5.60;;;;;;;2.55;81.16;98030.17;117427;1208;22894;-63
2021/04/07 06:56:50;;;;;;;7.20;4.70;;;;;;;2.52;81.04;98031.47;117416;1209;22790;-63
2021/04/07 06:59:17;;;;;;;7.63;4.70;;;;;;;2.53;81.88;98030.42;117287;1209;22954;-64
2021/04/07 07:01:45;;;;;;;9.67;6.43;;;;;;;2.59;82.11;98031.33;117443;1209;22865;-63
2021/04/07 07:04:12;;;;;;;9.60;5.07;;;;;;;2.63;82.00;98043.20;117443;1208;22852;-64
2021/04/07 07:06:40;;;;;;;7.80;6.00;;;;;;;2.60;81.13;98044.50;117427;1208;22935;-60
2021/04/07 07:09:17;;;;;;;6.30;4.90;;;;;;;2.61;81.52;98045.31;117363;1208;23623;-60
2021/04/07 07:11:48;;;;;;;7.78;4.65;;;;;;;2.63;81.23;98049.40;117452;1209;22835;-59
2021/04/07 07:14:18;;;;;;;7.57;5.70;;;;;;;2.64;81.77;98042.15;117346;1208;22863;-60
2021/04/07 07:16:53;;;;;;;10.00;7.10;;;;;;;2.63;81.63;98051.27;117456;1208;22854;-60
2021/04/07 07:19:23;;;;;;;7.50;6.15;;;;;;;2.61;81.41;98048.82;117371;1209;22818;-60
2021/04/07 07:21:56;;;;;;;10.70;5.67;;;;;;;2.62;81.46;98055.83;117408;1208;22826;-59
2021/04/07 07:24:27;;;;;;;6.80;4.05;;;;;;;2.68;81.67;98062.13;117384;1209;22816;-61
2021/04/07 07:26:55;;;;;;;5.60;4.33;;;;;;;2.72;81.52;98071.34;117731;1206;22855;-61
2021/04/07 07:29:25;;;;;;;7.30;3.40;;;;;;;2.75;81.39;98068.97;117657;1206;23769;-61
2021/04/07 07:32:02;;;;;;;7.80;4.00;;;;;;;2.72;80.70;98065.97;117727;1206;22916;-61
2021/04/07 07:34:32;;;;;;;5.73;3.60;;;;;;;2.67;80.58;98063.19;117586;1206;23805;-61
2021/04/07 07:37:01;;;;;;;3.95;2.80;;;;;;;2.71;81.10;98058.95;117744;1206;22879;-61
2021/04/07 07:39:32;;;;;;;5.55;3.00;;;;;;;2.80;81.57;98062.86;117619;1206;23436;-61
2021/04/07 07:42:02;;;;;;;5.33;2.60;;;;;;;2.89;81.35;98055.19;117748;1205;22820;-61
2021/04/07 07:44:32;;;;;;;6.77;2.93;;;;;;;2.95;81.40;98057.73;117684;1205;22949;-60
2021/04/07 07:47:08;;;;;;;8.30;3.20;;;;;;;2.96;80.56;98048.61;117750;1206;22962;-60
2021/04/07 07:49:37;;;;;;;8.67;3.17;;;;;;;2.90;80.91;98048.76;117597;1205;22830;-60
2021/04/07 07:52:04;;;;;;;10.53;3.67;;;;;;;2.84;80.30;98040.63;117702;1205;22960;-60
2021/04/07 07:54:32;;;;;;;5.97;2.77;;;;;;;2.79;80.29;98045.09;117629;1205;22817;-59
2021/04/07 07:56:59;;;;;;;22.50;3.70;;;;;;;2.74;80.64;98045.03;117695;1205;22848;-59
2021/04/07 07:59:33;;;;;;;13.90;3.60;;;;;;;2.77;81.19;98033.77;117630;1205;22911;-60
2021/04/07 08:02:01;;;;;;;5.45;2.50;;;;;;;2.80;80.49;98031.41;117728;1206;22928;-60
2021/04/07 08:04:30;;;;;;;3.75;2.85;;;;;;;2.80;80.35;98038.66;117714;1205;23992;-60
2021/04/07 08:06:59;;;;;;;3.55;2.70;;;;;;;2.74;80.33;98031.59;117660;1205;23079;-59
2021/04/07 08:09:28;;;;;;;3.50;2.70;;;;;;;2.74;80.58;98042.34;117700;1206;22788;-60
2021/04/07 08:11:57;;;;;;;5.65;3.10;;;;;;;2.75;80.81;98044.76;117650;1205;22983;-60
2021/04/07 08:14:25;;;;;;;4.23;2.90;;;;;;;2.75;80.47;98044.76;117479;1205;22931;-59
2021/04/07 08:16:53;;;;;;;3.80;3.27;;;;;;;2.78;79.97;98048.84;117631;1206;22785;-65
2021/04/07 08:19:22;;;;;;;4.00;3.40;;;;;;;2.77;80.14;98041.83;117755;1206;22910;-64
2021/04/07 08:21:50;;;;;;;9.07;5.43;;;;;;;2.72;79.31;98049.83;117620;1206;22917;-64
2021/04/07 08:24:22;;;;;;;9.25;6.20;;;;;;;2.68;80.09;98040.61;117741;1205;22848;-65
2021/04/07 08:26:49;;;;;;;7.83;5.90;;;;;;;2.66;79.20;98053.48;117622;1206;22941;-65
2021/04/07 08:29:17;;;;;;;7.07;4.57;;;;;;;2.62;80.27;98046.95;117724;1205;22799;-64
2021/04/07 08:31:45;;;;;;;4.85;3.60;;;;;;;2.58;79.69;98053.89;117610;1205;23281;-62
2021/04/07 08:34:15;;;;;;;4.20;3.03;;;;;;;2.56;80.02;98051.45;117695;1205;22796;-63
2021/04/07 08:36:43;;;;;;;10.35;7.05;;;;;;;2.59;79.83;98050.15;117676;1205;22794;-62
2021/04/07 08:39:17;;;;;;;10.15;3.30;;;;;;;2.57;80.19;98050.39;117706;1206;23793;-63
2021/04/07 08:41:46;;;;;;;6.55;3.90;;;;;;;2.58;79.78;98043.14;117619;1205;23120;-64
2021/04/07 08:44:14;;;;;;;4.50;3.00;;;;;;;2.57;79.62;98049.57;117681;1205;23867;-65
2021/04/07 08:46:47;;;;;;;5.60;3.60;;;;;;;2.57;79.14;98046.88;117676;1205;23153;-60
2021/04/07 08:49:35;;;;;;;6.23;4.47;;;;;;;2.56;79.46;98046.06;117742;1205;22881;-61
2021/04/07 08:52:18;;;;;;;12.65;7.05;;;;;;;2.62;79.39;98055.02;117635;1205;22922;-61
2021/04/07 08:54:50;;;;;;;10.30;4.40;;;;;;;2.65;79.10;98059.92;117713;1206;23663;-61
2021/04/07 08:57:31;;;;;;;84.30;39.60;;;;;;;2.67;79.62;98057.80;117591;1206;23610;-60
2021/04/07 09:00:01;;;;;;;66.83;29.90;;;;;;;2.71;79.70;98058.95;117719;1206;23346;-60
2021/04/07 09:02:29;;;;;;;58.10;26.47;;;;;;;2.72;78.81;98066.78;117637;1206;23648;-60
2021/04/07 09:05:07;;;;;;;45.93;21.40;;;;;;;2.70;78.97;98058.14;117815;1205;25526;-60
2021/04/07 09:07:38;;;;;;;68.85;32.80;;;;;;;2.71;79.62;98054.39;117556;1206;22890;-60
2021/04/07 09:10:17;;;;;;;7.53;4.73;;;;;;;2.71;78.84;98051.70;117670;1205;23536;-60
2021/04/07 09:12:49;;;;;;;8.30;4.83;;;;;;;2.65;78.48;98049.16;117612;1205;22832;-60
2021/04/07 09:15:19;;;;;;;5.90;3.67;;;;;;;2.57;79.58;98047.70;117761;1205;22923;-60
2021/04/07 09:17:48;;;;;;;6.70;3.77;;;;;;;2.56;79.01;98054.13;117650;1205;23673;-60
2021/04/07 09:20:37;;;;;;;8.00;4.10;;;;;;;2.55;79.22;98057.88;117498;1205;22869;-60
2021/04/07 09:23:33;;;;;;;49.13;21.37;;;;;;;2.57;79.78;98063.02;117640;1205;22915;-60
2021/04/07 09:26:12;;;;;;;81.33;37.73;;;;;;;2.60;79.70;98078.67;117688;1206;22810;-60
2021/04/07 09:28:47;;;;;;;10.57;6.37;;;;;;;2.58;78.86;98076.22;117668;1206;22915;-60
2021/04/07 09:31:32;;;;;;;50.30;25.20;;;;;;;2.54;79.60;98076.94;117746;1205;23829;-61
2021/04/07 09:34:02;;;;;;;31.05;16.93;;;;;;;2.54;79.48;98079.63;117386;1206;22845;-60
2021/04/07 09:36:36;;;;;;;28.23;14.60;;;;;;;2.54;79.41;98077.75;117720;1206;22908;-60
2021/04/07 09:39:06;;;;;;;13.73;7.50;;;;;;;2.52;79.96;98073.67;117664;1206;22822;-60
2021/04/07 09:41:35;;;;;;;11.90;6.95;;;;;;;2.47;79.89;98074.38;117749;1206;22997;-60
2021/04/07 09:44:06;;;;;;;23.75;13.45;;;;;;;2.45;80.28;98068.45;117660;1205;23700;-60
2021/04/07 09:46:34;;;;;;;7.40;5.10;;;;;;;2.44;80.38;98075.70;117745;1205;22877;-61
2021/04/07 09:49:08;;;;;;;16.20;9.85;;;;;;;2.45;79.99;98066.55;117672;1205;22935;-60
2021/04/07 09:51:43;;;;;;;6.00;4.30;;;;;;;2.46;80.06;98067.38;117733;1206;23158;-60
2021/04/07 09:54:38;;;;;;;7.80;5.20;;;;;;;2.46;80.17;98068.19;117669;1206;22825;-60
2021/04/07 09:57:11;;;;;;;6.63;4.53;;;;;;;2.55;80.37;98070.50;117711;1205;22869;-64
2021/04/07 09:59:49;;;;;;;8.20;5.60;;;;;;;2.60;80.51;98074.08;117676;1205;22990;-63
2021/04/07 10:02:29;;;;;;;14.57;8.37;;;;;;;2.65;81.07;98070.67;117730;1206;23746;-64
2021/04/07 10:05:07;;;;;;;10.90;6.60;;;;;;;2.68;80.86;98070.19;117665;1206;22903;-64
2021/04/07 10:07:35;;;;;;;15.97;10.27;;;;;;;2.63;80.89;98072.78;117734;1205;22822;-64
2021/04/07 10:10:07;;;;;;;6.85;4.90;;;;;;;2.60;80.82;98070.60;117631;1206;23527;-64
2021/04/07 10:12:37;;;;;;;8.05;5.20;;;;;;;2.57;80.53;98079.14;117768;1206;22891;-64
2021/04/07 10:15:05;;;;;;;12.20;5.70;;;;;;;2.57;80.84;98076.45;117416;1206;23757;-64
2021/04/07 10:17:36;;;;;;;9.93;6.20;;;;;;;2.55;80.98;98084.76;117759;1205;22941;-65
2021/04/07 10:20:08;;;;;;;6.87;5.27;;;;;;;2.54;80.84;98087.69;117630;1206;22892;-64
2021/04/07 10:22:37;;;;;;;5.80;4.50;;;;;;;2.57;81.29;98095.28;117739;1206;22971;-65
2021/04/07 10:25:13;;;;;;;9.13;5.33;;;;;;;2.58;80.83;98091.53;117704;1205;22844;-64
2021/04/07 10:27:41;;;;;;;10.93;4.40;;;;;;;2.61;81.57;98085.64;117710;1206;22932;-61
2021/04/07 10:30:20;;;;;;;12.37;5.60;;;;;;;2.65;81.92;98082.24;117710;1206;22870;-61
2021/04/07 10:32:49;;;;;;;10.50;5.30;;;;;;;2.74;81.78;98093.44;117712;1206;22780;-60
2021/04/07 10:35:26;;;;;;;9.95;3.95;;;;;;;2.77;81.60;98098.30;117734;1206;22830;-60
2021/04/07 10:37:56;;;;;;;13.30;4.60;;;;;;;2.66;81.25;98083.06;117722;1206;25448;-60
2021/04/07 10:40:31;;;;;;;8.80;4.53;;;;;;;2.72;80.83;98098.23;117751;1205;22900;-60
2021/04/07 10:43:09;;;;;;;15.75;9.20;;;;;;;2.74;81.50;98088.06;117653;1205;22819;-60
2021/04/07 10:45:37;;;;;;;13.90;8.50;;;;;;;2.79;81.92;98086.25;117796;1206;22836;-60
2021/04/07 10:48:05;;;;;;;14.00;7.60;;;;;;;2.84;81.49;98083.66;117625;1205;23176;-60
2021/04/07 10:50:35;;;;;;;14.53;8.37;;;;;;;2.91;81.53;98075.41;117697;1206;22900;-60
2021/04/07 10:53:03;;;;;;;13.70;7.75;;;;;;;2.90;81.07;98076.47;117656;1206;22840;-60
2021/04/07 10:55:31;;;;;;;10.67;6.33;;;;;;;2.83;81.02;98079.34;117165;1206;26105;-64
2021/04/07 10:58:00;;;;;;;10.83;5.47;;;;;;;2.78;80.69;98076.55;117791;1205;24906;-64
2021/04/07 11:00:32;;;;;;;10.25;5.65;;;;;;;2.74;80.88;98080.78;117854;1205;22873;-65
2021/04/07 11:02:59;;;;;;;10.45;4.80;;;;;;;2.71;81.43;98075.91;117744;1206;22954;-64
2021/04/07 11:05:39;;;;;;;6.95;4.45;;;;;;;2.68;81.66;98080.95;118120;1205;22853;-65
2021/04/07 11:08:09;;;;;;;7.15;4.50;;;;;;;2.67;81.65;98080.13;117807;1204;22895;-65
2021/04/07 11:10:57;;;;;;;9.65;4.65;;;;;;;2.65;81.21;98090.31;117875;1205;23889;-64
2021/04/07 11:13:24;;;;;;;8.93;5.73;;;;;;;2.58;81.42;98081.59;117798;1205;22868;-64
2021/04/07 11:15:52;;;;;;;8.93;4.70;;;;;;;2.58;81.80;98086.16;117701;1204;22918;-64
2021/04/07 11:18:29;;;;;;;8.93;4.10;;;;;;;2.55;81.91;98084.76;117755;1206;22816;-64
2021/04/07 11:20:58;;;;;;;6.35;4.30;;;;;;;2.52;81.71;98079.05;117905;1206;23644;-64
2021/04/07 11:23:25;;;;;;;6.00;3.60;;;;;;;2.47;82.00;98072.52;117778;1205;22901;-64
2021/04/07 11:25:53;;;;;;;5.93;3.90;;;;;;;2.48;81.58;98074.14;116865;1205;23145;-64
2021/04/07 11:28:25;;;;;;;6.77;3.70;;;;;;;2.44;82.17;98077.58;113856;1207;25955;-63
2021/04/07 11:31:09;;;;;;;5.43;4.13;;;;;;;2.47;82.77;98085.13;117621;1206;24191;-64
2021/04/07 11:46:36;;;;;;;8.40;4.80;;;;;;;2.61;82.24;98088.34;117873;1205;22824;-64
2021/04/07 11:49:04;;;;;;;9.40;5.75;;;;;;;2.64;82.04;98080.61;117823;1205;23632;-64
2021/04/07 11:51:40;;;;;;;8.65;4.90;;;;;;;2.68;82.47;98079.08;117847;1205;22928;-65
2021/04/07 11:54:11;;;;;;;10.20;3.90;;;;;;;2.75;82.18;98092.35;117798;1205;22818;-64
2021/04/07 11:56:44;;;;;;;7.70;4.30;;;;;;;2.79;81.71;98098.88;117835;1205;22888;-64